createdAt,value
2016-04-01T00:00:02.079Z,85.63
2016-04-01T00:01:02.003Z,86.1
2016-04-01T00:02:01.959Z,86.3
2016-04-01T00:03:01.915Z,86.39
2016-04-01T00:04:01.855Z,86.49
2016-04-01T00:05:01.811Z,86.2
2016-04-01T00:06:01.766Z,86.58
2016-04-01T00:07:01.722Z,86.63
2016-04-01T00:08:01.663Z,87.02
2016-04-01T00:09:01.603Z,86.73
2016-04-01T00:10:01.558Z,86.63
2016-04-01T00:11:01.514Z,86.92
2016-04-01T00:12:01.455Z,86.44
2016-04-01T00:13:01.395Z,86.73
2016-04-01T00:14:01.351Z,86.44
2016-04-01T00:15:01.291Z,86.54
2016-04-01T00:16:01.246Z,87.11
2016-04-01T00:17:01.219Z,87.49
2016-04-01T00:18:01.143Z,87.21
2016-04-01T00:19:01.114Z,86.82
2016-04-01T00:20:03.243Z,87.02
2016-04-01T00:21:00.995Z,87.4
2016-04-01T00:22:00.934Z,87.49
2016-04-01T00:23:00.891Z,87.3
2016-04-01T00:24:00.846Z,87.11
2016-04-01T00:25:00.787Z,86.25
2016-04-01T00:26:00.743Z,86.44
2016-04-01T00:27:00.682Z,86.92
2016-04-01T00:28:00.654Z,87.21
2016-04-01T00:29:00.594Z,86.82
2016-04-01T00:30:00.534Z,86.63
2016-04-01T00:31:00.506Z,86.54
2016-04-01T00:32:00.445Z,86.63
2016-04-01T00:33:00.387Z,86.73
2016-04-01T00:34:00.342Z,86.82
2016-04-01T00:35:00.282Z,86.73
2016-04-01T00:36:00.223Z,87.02
2016-04-01T00:37:00.178Z,86.63
2016-04-01T00:38:00.118Z,86.35
2016-04-01T00:39:00.090Z,86.82
2016-04-01T00:40:00.030Z,86.73
2016-04-01T00:40:59.970Z,87.3
2016-04-01T00:41:59.911Z,87.68
2016-04-01T00:42:59.866Z,87.49
2016-04-01T00:43:59.822Z,87.02
2016-04-01T00:44:59.777Z,87.49
2016-04-01T00:45:59.718Z,87.4
2016-04-01T00:46:59.565Z,87.49
2016-04-01T00:47:59.613Z,87.21
2016-04-01T00:48:59.585Z,87.4
2016-04-01T00:49:59.510Z,87.49
2016-04-01T00:50:59.482Z,88.07
2016-04-01T00:51:59.422Z,87.3
2016-04-01T00:52:59.362Z,87.4
2016-04-01T00:53:59.317Z,87.02
2016-04-01T00:54:59.258Z,87.4
2016-04-01T00:55:59.215Z,87.4
2016-04-01T00:56:59.170Z,87.49
2016-04-01T00:57:59.110Z,87.49
2016-04-01T00:58:59.050Z,86.92
2016-04-01T00:59:59.006Z,87.21
2016-04-01T01:00:58.962Z,87.11
2016-04-01T01:01:58.902Z,86.35
2016-04-01T01:02:58.858Z,86.63
2016-04-01T01:03:58.798Z,87.11
2016-04-01T01:04:58.754Z,87.4
2016-04-01T01:05:58.694Z,87.68
2016-04-01T01:06:58.665Z,87.21
2016-04-01T01:07:58.589Z,86.82
2016-04-01T01:08:58.545Z,86.44
2016-04-01T01:09:58.502Z,87.11
2016-04-01T01:10:58.442Z,87.07
2016-04-01T01:11:58.382Z,86.98
2016-04-01T01:12:58.353Z,86.4
2016-04-01T01:13:58.278Z,86.21
2016-04-01T01:14:58.233Z,86.3
2016-04-01T01:15:58.189Z,86.21
2016-04-01T01:16:58.161Z,87.26
2016-04-01T01:17:58.069Z,86.4
2016-04-01T01:18:58.041Z,86.78
2016-04-01T01:19:57.982Z,87.16
2016-04-01T01:20:57.937Z,86.78
2016-04-01T01:21:57.893Z,87.26
2016-04-01T01:22:57.833Z,86.98
2016-04-01T01:23:57.773Z,87.45
2016-04-01T01:24:57.713Z,87.45
2016-04-01T01:25:57.685Z,87.54
2016-04-01T01:26:57.625Z,87.35
2016-04-01T01:27:57.565Z,86.88
2016-04-01T01:28:57.537Z,87.16
2016-04-01T01:29:57.462Z,86.4
2016-04-01T01:30:57.417Z,86.4
2016-04-01T01:31:57.357Z,86.3
2016-04-01T01:32:57.314Z,86.59
2016-04-01T01:33:57.253Z,86.3
2016-04-01T01:34:57.209Z,86.49
2016-04-01T01:35:57.180Z,86.59
2016-04-01T01:36:57.089Z,86.88
2016-04-01T01:37:57.045Z,86.98
2016-04-01T01:38:57.001Z,87.16
2016-04-01T01:39:56.957Z,86.49
2016-04-01T01:40:56.881Z,86.21
2016-04-01T01:41:56.838Z,86.11
2016-04-01T01:42:56.808Z,86.11
2016-04-01T01:43:56.733Z,86.49
2016-04-01T01:44:56.688Z,86.21
2016-04-01T01:45:56.645Z,86.59
2016-04-01T01:46:56.585Z,87.16
2016-04-01T01:47:56.525Z,86.98
2016-04-01T01:48:56.482Z,87.07
2016-04-01T01:49:56.421Z,86.49
2016-04-01T01:50:56.377Z,87.16
2016-04-01T01:51:56.333Z,86.78
2016-04-01T01:52:56.273Z,87.07
2016-04-01T01:53:56.229Z,86.88
2016-04-01T01:54:56.185Z,86.78
2016-04-01T01:55:56.126Z,87.07
2016-04-01T01:56:56.065Z,86.4
2016-04-01T01:57:56.021Z,86.59
2016-04-01T01:58:55.962Z,86.78
2016-04-01T01:59:55.917Z,87.35
2016-04-01T02:00:55.857Z,86.98
2016-04-01T02:01:55.812Z,87.45
2016-04-01T02:02:55.753Z,87.45
2016-04-01T02:03:55.693Z,87.26
2016-04-01T02:04:55.649Z,86.88
2016-04-01T02:05:55.589Z,86.98
2016-04-01T02:06:55.561Z,86.3
2016-04-01T02:07:55.506Z,86.3
2016-04-01T02:08:55.430Z,86.4
2016-04-01T02:09:55.386Z,87.07
2016-04-01T02:10:55.327Z,86.3
2016-04-01T02:11:55.298Z,87.07
2016-04-01T02:12:55.285Z,86.3
2016-04-01T02:13:55.210Z,86.4
2016-04-01T02:14:55.134Z,85.97
2016-04-01T02:15:55.074Z,86.49
2016-04-01T02:16:55.046Z,86.88
2016-04-01T02:17:54.986Z,86.78
2016-04-01T02:18:54.927Z,87.12
2016-04-01T02:19:54.882Z,87.54
2016-04-01T02:20:54.821Z,87.35
2016-04-01T02:21:54.762Z,87.35
2016-04-01T02:22:54.718Z,87.45
2016-04-01T02:23:54.659Z,87.31
2016-04-01T02:24:54.629Z,87.6
2016-04-01T02:25:54.570Z,87.31
2016-04-01T02:26:54.510Z,87.21
2016-04-01T02:27:54.466Z,87.31
2016-04-01T02:28:54.407Z,87.88
2016-04-01T02:29:54.362Z,87.6
2016-04-01T02:30:54.303Z,87.98
2016-04-01T02:31:54.242Z,88.31
2016-04-01T02:32:54.214Z,88.84
2016-04-01T02:33:54.138Z,89.5
2016-04-01T02:34:54.094Z,89.31
2016-04-01T02:35:54.034Z,89.6
2016-04-01T02:36:53.990Z,89.36
2016-04-01T02:37:53.947Z,89.22
2016-04-01T02:38:53.902Z,89.31
2016-04-01T02:39:53.842Z,88.64
2016-04-01T02:40:53.782Z,88.74
2016-04-01T02:41:53.738Z,88.69
2016-04-01T02:42:53.693Z,88.4
2016-04-01T02:43:53.649Z,88.64
2016-04-01T02:44:53.590Z,88.26
2016-04-01T02:45:53.529Z,87.69
2016-04-01T02:46:53.470Z,88.17
2016-04-01T02:47:53.426Z,88.07
2016-04-01T02:48:53.365Z,87.88
2016-04-01T02:49:53.306Z,88.36
2016-04-01T02:50:53.277Z,88.36
2016-04-01T02:51:53.202Z,87.98
2016-04-01T02:52:53.158Z,87.98
2016-04-01T02:53:53.099Z,88.64
2016-04-01T02:54:53.070Z,89.4
2016-04-01T02:55:53.026Z,89.6
2016-04-01T02:56:52.935Z,89.79
2016-04-01T02:57:52.906Z,89.5
2016-04-01T02:58:52.846Z,88.64
2016-04-01T02:59:52.787Z,88.84
2016-04-01T03:00:53.054Z,88.64
2016-04-01T03:01:52.698Z,88.64
2016-04-01T03:02:52.654Z,88.74
2016-04-01T03:03:52.594Z,88.74
2016-04-01T03:04:52.550Z,88.74
2016-04-01T03:05:52.474Z,88.74
2016-04-01T03:06:52.462Z,88.45
2016-04-01T03:07:52.370Z,88.93
2016-04-01T03:08:52.325Z,88.55
2016-04-01T03:09:52.283Z,88.36
2016-04-01T03:10:52.222Z,88.45
2016-04-01T03:11:52.163Z,88.17
2016-04-01T03:12:52.150Z,88.07
2016-04-01T03:13:52.105Z,88.36
2016-04-01T03:14:52.014Z,88.64
2016-04-01T03:15:51.985Z,88.84
2016-04-01T03:16:51.926Z,88.55
2016-04-01T03:17:51.865Z,88.36
2016-04-01T03:18:51.806Z,87.79
2016-04-01T03:19:51.746Z,88.17
2016-04-01T03:20:51.702Z,88.07
2016-04-01T03:21:51.674Z,87.88
2016-04-01T03:22:51.598Z,87.31
2016-04-01T03:23:51.538Z,87.4
2016-04-01T03:24:51.510Z,87.6
2016-04-01T03:25:51.465Z,87.31
2016-04-01T03:26:51.390Z,87.4
2016-04-01T03:27:51.346Z,87.4
2016-04-01T03:28:51.287Z,87.4
2016-04-01T03:29:51.242Z,86.93
2016-04-01T03:30:51.182Z,85.88
2016-04-01T03:31:51.138Z,85.41
2016-04-01T03:32:51.095Z,84.64
2016-04-01T03:33:51.049Z,84.4
2016-04-01T03:34:50.974Z,84.11
2016-04-01T03:35:50.914Z,83.54
2016-04-01T03:36:50.870Z,82.59
2016-04-01T03:37:50.826Z,82.59
2016-04-01T03:38:50.781Z,82.2
2016-04-01T03:39:50.722Z,81.92
2016-04-01T03:40:50.662Z,81.25
2016-04-01T03:41:50.633Z,80.77
2016-04-01T03:42:50.574Z,81.06
2016-04-01T03:43:50.514Z,80.49
2016-04-01T03:44:50.470Z,80.87
2016-04-01T03:45:50.410Z,80.49
2016-04-01T03:46:50.366Z,80.2
2016-04-01T03:47:50.322Z,79.72
2016-04-01T03:48:50.262Z,79.91
2016-04-01T03:49:50.202Z,79.67
2016-04-01T03:50:50.158Z,79.57
2016-04-01T03:51:50.113Z,79.48
2016-04-01T03:52:50.054Z,79.19
2016-04-01T03:53:50.010Z,79.28
2016-04-01T03:54:49.966Z,79.1
2016-04-01T03:55:49.906Z,79.77
2016-04-01T03:56:49.845Z,79.67
2016-04-01T03:57:49.801Z,79.19
2016-04-01T03:58:49.773Z,79.19
2016-04-01T03:59:49.712Z,79.1
2016-04-01T04:00:49.653Z,79.67
2016-04-01T04:01:49.625Z,79.38
2016-04-01T04:02:49.550Z,79.77
2016-04-01T04:03:49.506Z,79.67
2016-04-01T04:04:49.461Z,79.48
2016-04-01T04:05:49.401Z,79.48
2016-04-01T04:06:49.357Z,79.77
2016-04-01T04:07:49.297Z,79.57
2016-04-01T04:08:49.253Z,79.86
2016-04-01T04:09:49.194Z,79.96
2016-04-01T04:10:49.149Z,80.05
2016-04-01T04:11:49.105Z,79.86
2016-04-01T04:12:49.077Z,80.24
2016-04-01T04:13:49.016Z,80.05
2016-04-01T04:14:48.957Z,80.62
2016-04-01T04:15:48.897Z,80.15
2016-04-01T04:16:48.853Z,80.15
2016-04-01T04:17:48.793Z,80.72
2016-04-01T04:18:48.749Z,80.43
2016-04-01T04:19:48.705Z,80.62
2016-04-01T04:20:48.848Z,80.33
2016-04-01T04:21:48.601Z,80.43
2016-04-01T04:22:48.557Z,80.53
2016-04-01T04:23:48.513Z,80.72
2016-04-01T04:24:48.452Z,81.38
2016-04-01T04:25:48.393Z,81.29
2016-04-01T04:26:48.349Z,81.2
2016-04-01T04:27:48.289Z,81.77
2016-04-01T04:28:48.245Z,81.67
2016-04-01T04:29:48.201Z,81.29
2016-04-01T04:30:48.141Z,81.77
2016-04-01T04:31:48.081Z,82.24
2016-04-01T04:32:48.037Z,82.15
2016-04-01T04:33:48.008Z,82.15
2016-04-01T04:34:47.948Z,82.06
2016-04-01T04:35:47.904Z,82.24
2016-04-01T04:36:47.844Z,82.24
2016-04-01T04:37:47.800Z,82.53
2016-04-01T04:38:47.740Z,82.72
2016-04-01T04:39:47.680Z,83.29
2016-04-01T04:40:47.636Z,82.91
2016-04-01T04:41:47.592Z,83.39
2016-04-01T04:42:47.533Z,83.2
2016-04-01T04:43:47.489Z,83.29
2016-04-01T04:44:47.444Z,83.01
2016-04-01T04:45:47.400Z,83.77
2016-04-01T04:46:47.339Z,83.77
2016-04-01T04:47:47.280Z,83.67
2016-04-01T04:48:47.236Z,83.48
2016-04-01T04:49:47.176Z,83.39
2016-04-01T04:50:47.132Z,84.25
2016-04-01T04:51:47.088Z,83.96
2016-04-01T04:52:47.027Z,84.34
2016-04-01T04:53:46.983Z,85.01
2016-04-01T04:54:46.924Z,85.58
2016-04-01T04:55:46.879Z,85.58
2016-04-01T04:56:46.836Z,85.58
2016-04-01T04:57:46.776Z,86.92
2016-04-01T04:58:46.715Z,87.3
2016-04-01T04:59:46.672Z,86.82
2016-04-01T05:00:46.627Z,86.92
2016-04-01T05:01:46.567Z,86.73
2016-04-01T05:02:46.540Z,87.02
2016-04-01T05:03:46.479Z,87.21
2016-04-01T05:04:46.420Z,87.11
2016-04-01T05:05:46.359Z,87.68
2016-04-01T05:06:46.300Z,87.4
2016-04-01T05:07:46.255Z,87.78
2016-04-01T05:08:46.211Z,87.87
2016-04-01T05:09:46.151Z,87.49
2016-04-01T05:10:46.108Z,87.11
2016-04-01T05:11:46.078Z,88.26
2016-04-01T05:12:46.004Z,87.97
2016-04-01T05:13:45.975Z,88.16
2016-04-01T05:14:45.899Z,87.78
2016-04-01T05:15:45.856Z,88.64
2016-04-01T05:16:45.827Z,88.59
2016-04-01T05:17:45.751Z,89.4
2016-04-01T05:18:45.707Z,89.45
2016-04-01T05:19:45.647Z,89.36
2016-04-01T05:20:45.588Z,89.5
2016-04-01T05:21:45.544Z,89.54
2016-04-01T05:22:45.483Z,89.5
2016-04-01T05:23:45.439Z,89.12
2016-04-01T05:24:45.380Z,89.17
2016-04-01T05:25:45.336Z,89.74
2016-04-01T05:26:45.291Z,89.54
2016-04-01T05:27:45.262Z,89.5
2016-04-01T05:28:45.171Z,89.88
2016-04-01T05:29:45.143Z,89.93
2016-04-01T05:30:45.099Z,89.54
2016-04-01T05:31:45.039Z,89.59
2016-04-01T05:32:44.979Z,89.88
2016-04-01T05:33:44.920Z,90.26
2016-04-01T05:34:44.859Z,90.26
2016-04-01T05:35:44.815Z,90.26
2016-04-01T05:36:44.771Z,90.17
2016-04-01T05:37:44.712Z,90.59
2016-04-01T05:38:44.668Z,89.97
2016-04-01T05:39:44.623Z,90.17
2016-04-01T05:40:44.609Z,89.97
2016-04-01T05:41:44.520Z,90.55
2016-04-01T05:42:44.475Z,90.36
2016-04-01T05:43:44.415Z,90.64
2016-04-01T05:44:44.370Z,90.45
2016-04-01T05:45:44.311Z,90.55
2016-04-01T05:46:44.267Z,90.64
2016-04-01T05:47:44.192Z,90.26
2016-04-01T05:48:44.147Z,90.5
2016-04-01T05:49:44.102Z,90.64
2016-04-01T05:50:44.058Z,90.55
2016-04-01T05:51:43.999Z,90.64
2016-04-01T05:52:43.955Z,90.93
2016-04-01T05:53:43.911Z,91.21
2016-04-01T05:54:43.851Z,91.02
2016-04-01T05:55:43.791Z,91.02
2016-04-01T05:56:43.747Z,91.02
2016-04-01T05:57:43.687Z,91.41
2016-04-01T05:58:43.643Z,91.98
2016-04-01T05:59:43.583Z,91.6
2016-04-01T06:00:43.538Z,91.74
2016-04-01T06:01:43.480Z,91.78
2016-04-01T06:02:43.434Z,91.74
2016-04-01T06:03:43.390Z,91.83
2016-04-01T06:04:43.331Z,92.03
2016-04-01T06:05:43.270Z,91.93
2016-04-01T06:06:43.227Z,92.03
2016-04-01T06:07:43.171Z,92.26
2016-04-01T06:08:43.111Z,91.98
2016-04-01T06:09:43.067Z,91.55
2016-04-01T06:10:43.023Z,91.88
2016-04-01T06:11:42.979Z,92.07
2016-04-01T06:12:42.919Z,92.26
2016-04-01T06:13:42.875Z,92.07
2016-04-01T06:14:42.816Z,91.98
2016-04-01T06:15:42.786Z,92.26
2016-04-01T06:16:42.727Z,92.36
2016-04-01T06:17:42.666Z,91.98
2016-04-01T06:18:42.607Z,92.46
2016-04-01T06:19:42.563Z,92.55
2016-04-01T06:20:42.503Z,92.17
2016-04-01T06:21:42.458Z,92.26
2016-04-01T06:22:42.414Z,92.36
2016-04-01T06:23:42.355Z,92.26
2016-04-01T06:24:42.310Z,92.07
2016-04-01T06:25:42.266Z,92.26
2016-04-01T06:26:42.206Z,92.07
2016-04-01T06:27:42.162Z,91.98
2016-04-01T06:28:42.118Z,91.5
2016-04-01T06:29:42.073Z,91.5
2016-04-01T06:30:42.014Z,91.88
2016-04-01T06:31:41.954Z,91.69
2016-04-01T06:32:41.895Z,92.36
2016-04-01T06:33:41.867Z,92.36
2016-04-01T06:34:41.806Z,92.46
2016-04-01T06:35:41.747Z,92.17
2016-04-01T06:36:41.687Z,92.36
2016-04-01T06:37:41.642Z,92.46
2016-04-01T06:38:41.598Z,91.98
2016-04-01T06:39:41.555Z,91.98
2016-04-01T06:40:41.494Z,91.88
2016-04-01T06:41:41.435Z,92.07
2016-04-01T06:42:41.390Z,91.78
2016-04-01T06:43:41.330Z,91.78
2016-04-01T06:44:41.286Z,91.5
2016-04-01T06:45:41.241Z,92.07
2016-04-01T06:46:41.182Z,92.26
2016-04-01T06:47:41.138Z,91.78
2016-04-01T06:48:41.172Z,91.88
2016-04-01T06:49:41.035Z,91.88
2016-04-01T06:50:40.990Z,91.88
2016-04-01T06:51:40.927Z,91.88
2016-04-01T06:52:40.883Z,91.88
2016-04-01T06:53:40.824Z,91.6
2016-04-01T06:54:40.763Z,91.69
2016-04-01T06:55:40.735Z,91.6
2016-04-01T06:56:40.676Z,92.26
2016-04-01T06:57:40.631Z,91.98
2016-04-01T06:58:40.587Z,91.6
2016-04-01T06:59:40.526Z,91.88
2016-04-01T07:00:40.483Z,92.36
2016-04-01T07:01:40.423Z,91.88
2016-04-01T07:02:40.442Z,91.98
2016-04-01T07:03:40.381Z,92.74
2016-04-01T07:04:40.275Z,92.83
2016-04-01T07:05:40.215Z,92.55
2016-04-01T07:06:40.156Z,92.07
2016-04-01T07:07:40.252Z,91.98
2016-04-01T07:08:40.050Z,92.26
2016-04-01T07:09:40.007Z,92.36
2016-04-01T07:10:39.963Z,91.98
2016-04-01T07:11:39.903Z,91.98
2016-04-01T07:12:39.844Z,91.78
2016-04-01T07:13:39.799Z,91.98
2016-04-01T07:14:39.755Z,91.88
2016-04-01T07:15:39.710Z,90.93
2016-04-01T07:16:39.666Z,91.21
2016-04-01T07:17:39.591Z,91.41
2016-04-01T07:18:39.657Z,91.41
2016-04-01T07:19:39.488Z,91.31
2016-04-01T07:20:39.459Z,91.31
2016-04-01T07:21:39.399Z,91.21
2016-04-01T07:22:39.354Z,91.31
2016-04-01T07:23:39.295Z,91.02
2016-04-01T07:24:39.236Z,91.31
2016-04-01T07:25:39.206Z,91.02
2016-04-01T07:26:39.146Z,91.5
2016-04-01T07:27:39.102Z,91.31
2016-04-01T07:28:39.074Z,91.02
2016-04-01T07:29:38.998Z,91.12
2016-04-01T07:30:38.940Z,91.41
2016-04-01T07:31:38.879Z,91.31
2016-04-01T07:32:38.850Z,91.21
2016-04-01T07:33:38.838Z,91.21
2016-04-01T07:34:38.731Z,91.31
2016-04-01T07:35:38.687Z,91.31
2016-04-01T07:36:38.627Z,91.21
2016-04-01T07:37:38.584Z,91.26
2016-04-01T07:38:38.539Z,91.88
2016-04-01T07:39:38.479Z,91.36
2016-04-01T07:40:38.435Z,91.12
2016-04-01T07:41:38.375Z,91.5
2016-04-01T07:42:38.331Z,90.83
2016-04-01T07:43:38.271Z,91.02
2016-04-01T07:44:38.214Z,91.02
2016-04-01T07:45:38.153Z,91.41
2016-04-01T07:46:38.078Z,91.45
2016-04-01T07:47:38.018Z,91.07
2016-04-01T07:48:37.974Z,90.78
2016-04-01T07:49:37.924Z,90.97
2016-04-01T07:50:37.843Z,90.59
2016-04-01T07:51:37.793Z,90.5
2016-04-01T07:52:37.729Z,90.88
2016-04-01T07:53:37.680Z,90.88
2016-04-01T07:54:37.601Z,90.21
2016-04-01T07:55:37.555Z,90.21
2016-04-01T07:56:37.525Z,90.59
2016-04-01T07:57:37.447Z,90.11
2016-04-01T07:58:37.402Z,90.02
2016-04-01T07:59:37.341Z,90.31
2016-04-01T08:00:37.312Z,90.4
2016-04-01T08:01:37.251Z,90.4
2016-04-01T08:02:37.206Z,90.69
2016-04-01T08:03:37.208Z,90.97
2016-04-01T08:04:37.085Z,90.5
2016-04-01T08:05:37.056Z,90.5
2016-04-01T08:06:36.996Z,90.69
2016-04-01T08:07:36.952Z,90.11
2016-04-01T08:08:36.907Z,90.4
2016-04-01T08:09:36.863Z,90.4
2016-04-01T08:10:36.787Z,90.5
2016-04-01T08:11:36.743Z,90.59
2016-04-01T08:12:36.715Z,90.21
2016-04-01T08:13:36.655Z,90.4
2016-04-01T08:14:36.595Z,89.68
2016-04-01T08:15:36.535Z,89.68
2016-04-01T08:16:36.523Z,88.92
2016-04-01T08:17:36.447Z,88.92
2016-04-01T08:18:36.590Z,88.82
2016-04-01T08:19:36.359Z,88.92
2016-04-01T08:20:36.314Z,88.82
2016-04-01T08:21:36.254Z,89.01
2016-04-01T08:22:36.194Z,89.2
2016-04-01T08:23:36.150Z,88.06
2016-04-01T08:24:36.106Z,87.77
2016-04-01T08:25:36.047Z,87.05
2016-04-01T08:26:36.017Z,86.96
2016-04-01T08:27:35.957Z,86.86
2016-04-01T08:28:35.897Z,87.05
2016-04-01T08:29:35.870Z,87.53
2016-04-01T08:30:35.810Z,86.96
2016-04-01T08:31:35.766Z,86.76
2016-04-01T08:32:35.722Z,87.53
2016-04-01T08:33:35.521Z,87.43
2016-04-01T08:34:35.633Z,86.67
2016-04-01T08:35:35.558Z,86.67
2016-04-01T08:36:35.513Z,85.9
2016-04-01T08:37:35.485Z,86.1
2016-04-01T08:38:35.425Z,85.52
2016-04-01T08:39:35.381Z,85.05
2016-04-01T08:40:35.337Z,84.85
2016-04-01T08:41:35.262Z,84.66
2016-04-01T08:42:35.217Z,84.95
2016-04-01T08:43:35.157Z,85.05
2016-04-01T08:44:35.113Z,84.52
2016-04-01T08:45:35.085Z,85.09
2016-04-01T08:46:35.009Z,85.09
2016-04-01T08:47:34.965Z,84.52
2016-04-01T08:48:34.921Z,84.66
2016-04-01T08:49:34.892Z,84.89
2016-04-01T08:50:34.817Z,85.57
2016-04-01T08:51:34.773Z,85.62
2016-04-01T08:52:34.729Z,86.04
2016-04-01T08:53:34.669Z,85.85
2016-04-01T08:54:34.625Z,85.18
2016-04-01T08:55:34.581Z,85.09
2016-04-01T08:56:34.520Z,85.47
2016-04-01T08:57:34.492Z,86.14
2016-04-01T08:58:34.447Z,86.14
2016-04-01T08:59:34.388Z,86.14
2016-04-01T09:00:34.328Z,85.85
2016-04-01T09:01:34.283Z,85.57
2016-04-01T09:02:34.224Z,84.99
2016-04-01T09:03:34.211Z,84.89
2016-04-01T09:04:34.135Z,84.99
2016-04-01T09:05:34.076Z,85.09
2016-04-01T09:06:34.032Z,84.99
2016-04-01T09:07:33.988Z,85.85
2016-04-01T09:08:33.943Z,86.14
2016-04-01T09:09:33.883Z,86.33
2016-04-01T09:10:33.840Z,86.43
2016-04-01T09:11:33.795Z,86.9
2016-04-01T09:12:33.735Z,86.43
2016-04-01T09:13:33.723Z,85.38
2016-04-01T09:14:33.646Z,85.09
2016-04-01T09:15:33.587Z,85.28
2016-04-01T09:16:33.559Z,85.28
2016-04-01T09:17:33.499Z,85.18
2016-04-01T09:18:33.361Z,84.52
2016-04-01T09:19:33.395Z,84.8
2016-04-01T09:20:33.351Z,84.99
2016-04-01T09:21:33.306Z,84.8
2016-04-01T09:22:33.247Z,84.42
2016-04-01T09:23:33.202Z,84.13
2016-04-01T09:24:33.142Z,84.32
2016-04-01T09:25:33.098Z,84.03
2016-04-01T09:26:33.053Z,84.23
2016-04-01T09:27:32.994Z,84.13
2016-04-01T09:28:32.966Z,84.03
2016-04-01T09:29:32.905Z,84.13
2016-04-01T09:30:32.861Z,84.7
2016-04-01T09:31:32.802Z,84.7
2016-04-01T09:32:32.774Z,85.13
2016-04-01T09:33:32.714Z,84.55
2016-04-01T09:34:32.655Z,83.89
2016-04-01T09:35:32.625Z,84.55
2016-04-01T09:36:32.566Z,84.94
2016-04-01T09:37:32.506Z,84.46
2016-04-01T09:38:32.461Z,84.17
2016-04-01T09:39:32.418Z,84.08
2016-04-01T09:40:32.373Z,83.4
2016-04-01T09:41:32.329Z,83.64
2016-04-01T09:42:32.269Z,82.68
2016-04-01T09:43:32.225Z,82.4
2016-04-01T09:44:32.181Z,82.59
2016-04-01T09:45:32.137Z,81.92
2016-04-01T09:46:32.093Z,81.92
2016-04-01T09:47:32.033Z,82.3
2016-04-01T09:48:32.005Z,82.53
2016-04-01T09:49:31.945Z,81.48
2016-04-01T09:50:31.901Z,81.48
2016-04-01T09:51:31.840Z,80.9
2016-04-01T09:52:31.796Z,80.62
2016-04-01T09:53:31.751Z,80.24
2016-04-01T09:54:31.692Z,80.24
2016-04-01T09:55:31.648Z,80.14
2016-04-01T09:56:31.604Z,80.08
2016-04-01T09:57:31.544Z,79.51
2016-04-01T09:58:31.500Z,79.8
2016-04-01T09:59:31.472Z,79.6
2016-04-01T10:00:31.442Z,78.55
2016-04-01T10:01:31.367Z,78.45
2016-04-01T10:02:31.322Z,78.07
2016-04-01T10:03:31.278Z,78.07
2016-04-01T10:04:31.219Z,78.07
2016-04-01T10:05:31.190Z,77.97
2016-04-01T10:06:31.021Z,77.69
2016-04-01T10:07:31.086Z,77.78
2016-04-01T10:08:31.058Z,77.69
2016-04-01T10:09:30.967Z,77.97
2016-04-01T10:10:30.923Z,78.07
2016-04-01T10:11:30.879Z,77.97
2016-04-01T10:12:30.835Z,77.5
2016-04-01T10:13:30.805Z,77.88
2016-04-01T10:14:30.762Z,78.17
2016-04-01T10:15:30.701Z,77.97
2016-04-01T10:16:30.657Z,77.78
2016-04-01T10:17:30.598Z,77.78
2016-04-01T10:18:30.538Z,77.5
2016-04-01T10:19:30.510Z,77.5
2016-04-01T10:20:30.449Z,77.5
2016-04-01T10:21:30.406Z,77.21
2016-04-01T10:22:30.361Z,77.02
2016-04-01T10:23:30.317Z,76.73
2016-04-01T10:24:30.257Z,76.96
2016-04-01T10:25:30.212Z,77.25
2016-04-01T10:26:30.184Z,77.97
2016-04-01T10:27:30.124Z,77.88
2016-04-01T10:28:30.081Z,77.4
2016-04-01T10:29:30.036Z,76.73
2016-04-01T10:30:29.976Z,76.15
2016-04-01T10:31:29.947Z,76.82
2016-04-01T10:32:29.888Z,76.82
2016-04-01T10:33:29.828Z,77.31
2016-04-01T10:34:29.800Z,77.02
2016-04-01T10:35:29.756Z,76.73
2016-04-01T10:36:29.697Z,77.11
2016-04-01T10:37:29.636Z,77.97
2016-04-01T10:38:29.592Z,77.5
2016-04-01T10:39:29.532Z,76.44
2016-04-01T10:40:29.503Z,76.82
2016-04-01T10:41:29.459Z,76.92
2016-04-01T10:42:29.415Z,76.54
2016-04-01T10:43:29.355Z,77.78
2016-04-01T10:44:29.296Z,77.94
2016-04-01T10:45:29.252Z,78.13
2016-04-01T10:46:29.191Z,78.03
2016-04-01T10:47:29.147Z,77.75
2016-04-01T10:48:29.103Z,77.84
2016-04-01T10:49:28.309Z,77.46
2016-04-01T10:50:29.029Z,78.13
2016-04-01T10:51:28.954Z,77.94
2016-04-01T10:52:28.910Z,77.84
2016-04-01T10:53:28.867Z,78.32
2016-04-01T10:54:28.823Z,78.99
2016-04-01T10:55:28.028Z,78.32
2016-04-01T10:56:29.250Z,78.13
2016-04-01T10:57:28.658Z,78.22
2016-04-01T10:58:28.614Z,78.32
2016-04-01T10:59:28.570Z,78.38
2016-04-01T11:00:28.526Z,77.7
2016-04-01T11:01:28.466Z,78.28
2016-04-01T11:02:28.437Z,78.38
2016-04-01T11:03:28.378Z,78.19
2016-04-01T11:04:28.317Z,78.28
2016-04-01T11:05:28.274Z,78.19
2016-04-01T11:06:28.229Z,78.28
2016-04-01T11:07:28.178Z,78.14
2016-04-01T11:08:28.134Z,78.81
2016-04-01T11:09:28.090Z,78.91
2016-04-01T11:10:28.031Z,78.91
2016-04-01T11:11:27.970Z,79.1
2016-04-01T11:12:27.926Z,79.1
2016-04-01T11:13:27.882Z,78.91
2016-04-01T11:14:27.822Z,79.49
2016-04-01T11:15:27.778Z,79.2
2016-04-01T11:16:27.719Z,79.73
2016-04-01T11:17:27.675Z,80.21
2016-04-01T11:18:27.458Z,79.25
2016-04-01T11:19:27.570Z,79.35
2016-04-01T11:20:27.510Z,80.11
2016-04-01T11:21:27.482Z,80.36
2016-04-01T11:22:27.421Z,80.59
2016-04-01T11:23:27.377Z,79.6
2016-04-01T11:24:27.318Z,80.55
2016-04-01T11:25:27.258Z,79.88
2016-04-01T11:26:27.214Z,80.36
2016-04-01T11:27:27.154Z,80.36
2016-04-01T11:28:27.110Z,80.27
2016-04-01T11:29:27.065Z,80.65
2016-04-01T11:30:27.006Z,80.27
2016-04-01T11:31:26.961Z,80.46
2016-04-01T11:32:26.901Z,80.51
2016-04-01T11:33:26.857Z,80.61
2016-04-01T11:34:26.814Z,80.55
2016-04-01T11:35:26.770Z,80.22
2016-04-01T11:36:26.709Z,80.32
2016-04-01T11:37:26.665Z,80.41
2016-04-01T11:38:26.605Z,80.51
2016-04-01T11:39:26.545Z,81.27
2016-04-01T11:40:26.501Z,81.27
2016-04-01T11:41:26.442Z,80.99
2016-04-01T11:42:26.414Z,81.56
2016-04-01T11:43:26.353Z,81.76
2016-04-01T11:44:26.325Z,81.56
2016-04-01T11:45:26.250Z,82
2016-04-01T11:46:26.205Z,82.04
2016-04-01T11:47:26.145Z,81.76
2016-04-01T11:48:26.085Z,81.9
2016-04-01T11:49:26.042Z,82.29
2016-04-01T11:50:26.013Z,82.09
2016-04-01T11:51:25.188Z,82.86
2016-04-01T11:52:25.878Z,83.24
2016-04-01T11:53:25.880Z,82.76
2016-04-01T11:54:25.774Z,82.19
2016-04-01T11:55:25.713Z,82.19
2016-04-01T11:56:25.685Z,82.48
2016-04-01T11:57:25.625Z,82.29
2016-04-01T11:58:25.581Z,81.43
2016-04-01T11:59:25.521Z,81.33
2016-04-01T12:00:25.462Z,81.9
2016-04-01T12:01:25.402Z,81.9
2016-04-01T12:02:25.357Z,81.24
2016-04-01T12:03:25.313Z,82.19
2016-04-01T12:04:25.284Z,81.9
2016-04-01T12:05:25.225Z,81.81
2016-04-01T12:06:25.165Z,82
2016-04-01T12:07:25.121Z,81.81
2016-04-01T12:08:25.046Z,81.71
2016-04-01T12:09:25.001Z,81.62
2016-04-01T12:10:24.973Z,81.14
2016-04-01T12:11:24.897Z,82
2016-04-01T12:12:24.837Z,81.71
2016-04-01T12:13:24.808Z,81.14
2016-04-01T12:14:24.764Z,81.14
2016-04-01T12:15:24.689Z,81.14
2016-04-01T12:16:24.630Z,80.95
2016-04-01T12:17:24.601Z,81.58
2016-04-01T12:18:27.714Z,81.81
2016-04-01T12:19:24.497Z,81.43
2016-04-01T12:20:24.438Z,81.71
2016-04-01T12:21:24.580Z,80.85
2016-04-01T12:22:24.333Z,81.24
2016-04-01T12:23:24.273Z,80.85
2016-04-01T12:24:24.229Z,81.04
2016-04-01T12:25:24.169Z,80.38
2016-04-01T12:26:24.124Z,80.66
2016-04-01T12:27:24.082Z,80.66
2016-04-01T12:28:24.037Z,80.85
2016-04-01T12:29:24.008Z,81.52
2016-04-01T12:30:23.917Z,81.81
2016-04-01T12:31:23.873Z,80.47
2016-04-01T12:32:23.813Z,81.04
2016-04-01T12:33:23.785Z,81.04
2016-04-01T12:34:23.710Z,80.47
2016-04-01T12:35:23.665Z,80.57
2016-04-01T12:36:23.606Z,80.57
2016-04-01T12:37:23.561Z,80.28
2016-04-01T12:38:23.501Z,80.19
2016-04-01T12:39:23.457Z,80.57
2016-04-01T12:40:23.397Z,79.9
2016-04-01T12:41:23.369Z,79.8
2016-04-01T12:42:23.308Z,79.71
2016-04-01T12:43:23.250Z,79.9
2016-04-01T12:44:23.189Z,80.28
2016-04-01T12:45:23.145Z,79.99
2016-04-01T12:46:23.085Z,79.52
2016-04-01T12:47:23.041Z,80.38
2016-04-01T12:48:23.028Z,80.57
2016-04-01T12:49:22.968Z,80.28
2016-04-01T12:50:22.924Z,80.13
2016-04-01T12:51:22.848Z,80.61
2016-04-01T12:52:22.788Z,80.32
2016-04-01T12:53:22.744Z,79.85
2016-04-01T12:54:22.685Z,79.75
2016-04-01T12:55:22.641Z,79.17